Game Details

[ Leader Board ] [ Players ] [ Opponents ] [ Guilds ] [ Areas ]

Game Details for: Guytou

Game Progress

Quest Completed on Day
Mountain Pass 45
Chaak Mine 44
Arena 1 24
Dave and Heidi 16
Mushroom Stew 5

Full Telemetry

Time Game Day Game Hour Game Minute Type Details Value Extra Zone X Y Credits Guild
8/30/2018 6:07:50 PM 13 8 8 Daily Condor 1016 Village1 10 27 231 None
8/30/2018 6:07:29 PM 12 14 6 Equip Tech Leather Cap 136 Village1 22 25 236 None
8/30/2018 6:06:39 PM 12 13 59 Equip Kinetic Field 133 Village1 4 9 367 None
8/30/2018 6:06:34 PM 12 13 59 Train Tech 2 Village1 4 9 367 None
8/30/2018 6:06:27 PM 12 10 58 Combat Lv 3 Wasp 0 Win Village1 10 7 362 None
8/30/2018 6:06:27 PM 12 10 58 Arena Win 2 Village1 10 7 399 None
8/30/2018 6:05:24 PM 12 9 35 Combat Lv 1 Worg 0 Win Village1 10 7 317 None
8/30/2018 6:05:24 PM 12 9 35 Arena Win 1 Village1 10 7 342 None
8/30/2018 6:00:59 PM 12 1 31 Daily Condor 832 Village1 6 26 226 None
8/30/2018 5:59:40 PM 11 9 21 Equip Mace 119 Village1 22 25 119 None
8/30/2018 5:58:54 PM 11 9 12 Daily Condor 769 Village1 10 27 441 None
8/30/2018 5:58:15 PM 10 7 0 Daily Condor 769 Village1 10 27 380 None
8/30/2018 5:57:03 PM 9 10 32 Arena Loss 0 Village1 10 7 371 None
8/30/2018 5:57:02 PM 9 10 32 Combat Lv 1 Worg 0 Die Village1 10 7 371 None
8/30/2018 5:55:48 PM 9 10 28 Train Accuracy 2 Village1 4 9 371 None
8/30/2018 5:55:02 PM 9 2 19 Daily Condor 749 Village1 6 26 342 None
8/29/2018 9:23:05 PM 8 10 22 Train Accuracy 2 Village1 4 9 111 None
8/29/2018 9:22:42 PM 8 8 16 Equip Fine Leather Cap 120 Village1 22 25 143 None
8/29/2018 9:21:35 PM 8 8 7 Daily Condor 749 Village1 10 27 279 None
8/29/2018 9:21:03 PM 7 8 59 Daily Condor 749 Village1 10 27 212 None
8/29/2018 9:20:30 PM 6 20 51 Combat Lv 1 Worg 0 Die Village1 10 7 217 None
8/29/2018 9:20:30 PM 6 20 51 Arena Loss 0 Village1 10 7 217 None
8/29/2018 9:19:27 PM 6 20 49 Train Speed 2 Village1 4 9 217 None
8/29/2018 9:18:49 PM 6 18 44 Nexus Quest 0 Mushrooms BuildingHouse1 6 9 141 None
8/29/2018 9:18:49 PM 6 18 44 Quest Mushroom Stew 0 BuildingHouse1 6 9 141 None
8/29/2018 9:17:58 PM 6 18 27 Combat Lv 1 Slime Mold 0 Win MushroomRiver 8 19 141 None
8/29/2018 9:16:32 PM 6 18 25 Combat Lv 1 Wasp 0 Win MushroomRiver 13 13 107 None
8/29/2018 9:15:16 PM 6 18 18 Combat Lv 1 Wasp 0 Win MushroomRiver 37 20 65 None
8/29/2018 9:13:11 PM 6 17 53 Equip Cloth Armor 73 Village1 20 25 50 None
8/29/2018 8:37:55 PM 6 3 18 Daily Condor 656 Village1 6 26 94 None